Time;durP1;ratioP1;P1;durP2;ratioP2;P2;SDS_P1;SDS_P2;PMS_P1;PMS_P2;Temp;Humidity;BMP_temperature;BMP_pressure;BME280_temperature;BME280_humidity;BME280_pressure;Samples;Min_cycle;Max_cycle;Signal;HPM_P1;HPM_P2
2023/01/18 00:01:17;;;;;;;0.20;0.20;;;;;;;;;;7375066;19;20220;-68
2023/01/18 00:03:46;;;;;;;0.20;0.20;;;;;;;;;;7375958;19;20137;-68
2023/01/18 00:06:16;;;;;;;0.17;0.17;;;-1.20;99.90;;;;;;7376984;19;20141;-68
2023/01/18 00:08:45;;;;;;;0.17;0.17;;;-1.30;99.90;;;;;;7373517;19;20193;-68
2023/01/18 00:11:15;;;;;;;0.20;0.20;;;-1.30;99.90;;;;;;7375861;19;20154;-68
2023/01/18 00:13:44;;;;;;;0.10;0.10;;;-1.40;99.90;;;;;;7376293;19;20166;-68
2023/01/18 00:16:17;;;;;;;0.13;0.13;;;-1.40;99.90;;;;;;7374717;19;20728;-68
2023/01/18 00:18:51;;;;;;;0.20;0.20;;;-1.40;99.90;;;;;;7374171;19;20658;-67
2023/01/18 00:21:20;;;;;;;0.20;0.20;;;-1.40;99.90;;;;;;7374779;19;20169;-68
2023/01/18 00:23:48;;;;;;;0.20;0.20;;;-1.40;99.90;;;;;;7373667;19;20167;-68
2023/01/18 00:26:17;;;;;;;0.20;0.20;;;-1.40;99.90;;;;;;7376679;19;20137;-68
2023/01/18 00:28:46;;;;;;;0.10;0.10;;;-1.40;99.90;;;;;;7374376;19;20156;-69
2023/01/18 00:31:21;;;;;;;0.20;0.20;;;-1.40;99.90;;;;;;7374601;19;20161;-68
2023/01/18 00:33:50;;;;;;;0.10;0.10;;;-1.40;99.90;;;;;;7372467;19;20713;-68
2023/01/18 00:36:20;;;;;;;0.10;0.10;;;-1.30;99.90;;;;;;7374834;19;20137;-67
2023/01/18 00:38:52;;;;;;;0.10;0.10;;;-1.30;99.90;;;;;;7374033;19;20161;-68
2023/01/18 00:41:22;;;;;;;0.10;0.10;;;-1.30;99.90;;;;;;7375797;19;20141;-68
2023/01/18 00:43:48;;;;;;;0.20;0.20;;;-1.30;99.90;;;;;;7373014;19;20197;-68
2023/01/18 00:46:21;;;;;;;0.10;0.10;;;-1.30;99.90;;;;;;7375531;19;20155;-67
2023/01/18 00:48:50;;;;;;;0.10;0.10;;;-1.20;99.90;;;;;;7372402;19;20184;-68
2023/01/18 00:51:21;;;;;;;0.10;0.10;;;-1.30;99.90;;;;;;7374711;19;20136;-68
2023/01/18 00:53:50;;;;;;;0.15;0.15;;;-1.30;99.90;;;;;;7372776;19;20177;-68
2023/01/18 00:56:22;;;;;;;0.10;0.10;;;-1.30;99.90;;;;;;7374312;19;20140;-68
2023/01/18 00:58:50;;;;;;;0.10;0.10;;;-1.30;99.90;;;;;;7374265;19;20223;-68
2023/01/18 01:01:22;;;;;;;0.10;0.10;;;-1.30;99.90;;;;;;7373552;19;20141;-68
2023/01/18 01:06:46;;;;;;;0.20;0.20;;;-1.30;99.90;;;;;;7371946;19;20156;-68
2023/01/18 01:09:19;;;;;;;0.10;0.10;;;-1.30;99.90;;;;;;7371080;19;20160;-68
2023/01/18 01:27:57;;;;;;;0.15;0.15;;;-1.40;99.90;;;;;;7372596;19;20153;-68
2023/01/18 01:30:26;;;;;;;0.10;0.10;;;-1.40;99.90;;;;;;7371823;19;20192;-68
2023/01/18 01:32:57;;;;;;;0.10;0.10;;;-1.40;99.90;;;;;;7372784;19;20224;-68
2023/01/18 01:35:26;;;;;;;0.17;0.17;;;-1.40;99.90;;;;;;7370126;19;20160;-66
2023/01/18 01:37:55;;;;;;;0.20;0.20;;;-1.40;99.90;;;;;;7371670;19;20157;-68
2023/01/18 01:40:23;;;;;;;0.10;0.10;;;-1.40;99.90;;;;;;7374339;19;20137;-69
2023/01/18 01:42:52;;;;;;;0.10;0.10;;;-1.40;99.90;;;;;;7373520;19;20168;-68
2023/01/18 01:45:21;;;;;;;0.10;0.10;;;-1.30;99.90;;;;;;7373520;19;20162;-68
2023/01/18 01:47:50;;;;;;;0.10;0.10;;;-1.30;99.90;;;;;;7372174;19;20153;-68
2023/01/18 01:50:28;;;;;;;0.20;0.20;;;-1.30;99.90;;;;;;7373256;19;20141;-68
2023/01/18 01:52:58;;;;;;;0.20;0.20;;;-1.30;99.90;;;;;;7372135;19;20144;-69
2023/01/18 01:55:30;;;;;;;0.20;0.20;;;-1.30;99.90;;;;;;7372163;19;20141;-68
2023/01/18 01:58:02;;;;;;;0.10;0.10;;;-1.30;99.90;;;;;;7371271;19;20160;-68
2023/01/18 02:00:39;;;;;;;0.10;0.10;;;-1.30;99.90;;;;;;7376467;19;20137;-69
2023/01/18 02:03:11;;;;;;;0.10;0.10;;;-1.30;99.90;;;;;;7378429;19;20152;-67
2023/01/18 02:05:47;;;;;;;0.10;0.10;;;-1.30;99.90;;;;;;7377950;19;20160;-68
2023/01/18 02:08:21;;;;;;;0.20;0.20;;;-1.30;99.90;;;;;;7377144;19;20227;-68
2023/01/18 02:10:50;;;;;;;0.10;0.10;;;-1.20;99.90;;;;;;7378302;19;20151;-68
2023/01/18 02:13:19;;;;;;;0.20;0.20;;;-1.20;99.90;;;;;;7380312;19;20167;-68
2023/01/18 02:16:00;;;;;;;0.20;0.20;;;-1.20;99.90;;;;;;7376227;19;20162;-66
2023/01/18 02:18:33;;;;;;;0.10;0.10;;;-1.20;99.90;;;;;;7378194;19;20187;-68
2023/01/18 02:21:20;;;;;;;0.20;0.20;;;-1.20;99.90;;;;;;7377797;19;20165;-68
2023/01/18 02:24:20;;;;;;;0.20;0.20;;;-1.20;99.90;;;;;;7378918;19;20133;-68
2023/01/18 02:26:58;;;;;;;0.10;0.10;;;-1.20;99.90;;;;;;7379703;19;20149;-67
2023/01/18 02:29:55;;;;;;;0.10;0.10;;;-1.20;99.90;;;;;;7378556;19;20152;-66
2023/01/18 02:32:29;;;;;;;0.20;0.20;;;-1.20;99.90;;;;;;7380541;19;20143;-67
2023/01/18 02:35:05;;;;;;;0.10;0.10;;;-1.20;99.90;;;;;;7378043;19;20175;-67
2023/01/18 02:37:43;;;;;;;0.10;0.10;;;-1.20;99.90;;;;;;7378930;19;20160;-68
2023/01/18 02:40:19;;;;;;;0.10;0.10;;;-1.20;99.90;;;;;;7376818;19;20161;-68
2023/01/18 02:48:17;;;;;;;0.10;0.10;;;-1.20;99.90;;;;;;7378467;19;20177;-67
2023/01/18 02:50:46;;;;;;;0.20;0.20;;;-1.20;99.90;;;;;;7376735;19;20340;-68
2023/01/18 02:53:15;;;;;;;0.10;0.10;;;-1.20;99.90;;;;;;7378566;19;20172;-68
2023/01/18 02:55:52;;;;;;;0.10;0.10;;;-1.20;99.90;;;;;;7377939;19;20137;-68
2023/01/18 02:58:25;;;;;;;0.17;0.17;;;-1.30;99.90;;;;;;7377483;19;20157;-68
2023/01/18 03:01:02;;;;;;;0.10;0.10;;;-1.20;99.90;;;;;;7378017;19;20145;-68
2023/01/18 03:03:31;;;;;;;0.20;0.20;;;-1.20;99.90;;;;;;7378986;19;20137;-68
2023/01/18 03:06:02;;;;;;;0.20;0.20;;;-1.20;99.90;;;;;;7378401;19;20137;-68
2023/01/18 03:08:36;;;;;;;0.20;0.20;;;-1.20;99.90;;;;;;7376842;19;20204;-68
2023/01/18 03:11:10;;;;;;;0.10;0.10;;;-1.20;99.90;;;;;;7376087;19;20156;-68
2023/01/18 03:13:56;;;;;;;0.20;0.20;;;-1.30;99.90;;;;;;7377327;19;20145;-68
2023/01/18 03:16:38;;;;;;;0.15;0.15;;;-1.30;99.90;;;;;;7377491;19;20141;-67
2023/01/18 03:21:54;;;;;;;0.20;0.20;;;-1.20;99.90;;;;;;7376908;19;20177;-68
2023/01/18 03:24:22;;;;;;;0.10;0.10;;;-1.20;99.90;;;;;;7375053;19;20156;-69
2023/01/18 03:26:55;;;;;;;0.20;0.20;;;-1.20;99.90;;;;;;7375307;19;20181;-68
2023/01/18 03:35:02;;;;;;;0.20;0.20;;;-1.20;99.90;;;;;;7375157;19;20667;-68
2023/01/18 03:37:36;;;;;;;0.10;0.10;;;-1.20;99.90;;;;;;7374079;19;20191;-68
2023/01/18 03:40:09;;;;;;;0.20;0.20;;;-1.20;99.90;;;;;;7375199;19;20190;-68
2023/01/18 03:42:44;;;;;;;0.17;0.17;;;-1.20;99.90;;;;;;7378386;19;20228;-68
2023/01/18 03:45:22;;;;;;;0.10;0.10;;;-1.20;99.90;;;;;;7377740;19;20242;-68
2023/01/18 03:47:54;;;;;;;0.20;0.20;;;-1.20;99.90;;;;;;7374218;19;20189;-68
2023/01/18 03:50:29;;;;;;;0.10;0.10;;;-1.20;99.90;;;;;;7375711;19;20156;-67
2023/01/18 03:53:05;;;;;;;0.20;0.20;;;-1.20;99.90;;;;;;7376275;19;20140;-69
2023/01/18 03:55:42;;;;;;;0.10;0.10;;;-1.20;99.90;;;;;;7376268;19;20147;-68
2023/01/18 03:58:12;;;;;;;0.20;0.20;;;-1.10;99.90;;;;;;7373763;19;20292;-67
2023/01/18 04:00:42;;;;;;;0.15;0.15;;;-1.10;99.90;;;;;;7375338;19;20197;-68
2023/01/18 04:03:13;;;;;;;0.20;0.20;;;-1.10;99.90;;;;;;7375752;19;20531;-65
2023/01/18 04:05:42;;;;;;;0.17;0.17;;;-1.10;99.90;;;;;;7373931;19;20223;-69
2023/01/18 04:08:10;;;;;;;0.20;0.20;;;-1.20;99.90;;;;;;7372865;19;20181;-67
2023/01/18 04:10:39;;;;;;;0.20;0.20;;;-1.20;99.90;;;;;;7375359;19;20145;-68
2023/01/18 04:13:07;;;;;;;0.10;0.10;;;-1.20;99.90;;;;;;7376620;19;20133;-69
2023/01/18 04:15:36;;;;;;;0.20;0.20;;;-1.20;99.90;;;;;;7374291;19;20204;-68
2023/01/18 04:18:05;;;;;;;0.10;0.10;;;-1.20;99.90;;;;;;7372732;19;20650;-68
2023/01/18 04:20:36;;;;;;;0.10;0.10;;;-1.20;99.90;;;;;;7374169;19;20160;-68
2023/01/18 04:23:05;;;;;;;0.10;0.10;;;-1.10;99.90;;;;;;7374535;19;20150;-66
2023/01/18 04:25:33;;;;;;;0.17;0.17;;;-1.20;99.90;;;;;;7376359;19;20211;-68
2023/01/18 04:28:02;;;;;;;0.10;0.10;;;-1.20;99.90;;;;;;7375373;19;20178;-68
2023/01/18 04:30:30;;;;;;;0.10;0.10;;;-1.20;99.90;;;;;;7376732;19;20146;-68
2023/01/18 04:32:59;;;;;;;0.10;0.10;;;-1.20;99.90;;;;;;7374863;19;20140;-68
2023/01/18 04:35:28;;;;;;;0.10;0.10;;;-1.20;99.90;;;;;;7372759;19;20156;-69
2023/01/18 04:37:59;;;;;;;0.10;0.10;;;-1.20;99.90;;;;;;7374046;19;20174;-68
2023/01/18 04:40:29;;;;;;;0.20;0.20;;;-1.20;99.90;;;;;;7375129;19;20185;-68
2023/01/18 04:42:58;;;;;;;0.20;0.20;;;-1.20;99.90;;;;;;7375580;19;20160;-67
2023/01/18 04:45:26;;;;;;;0.20;0.20;;;-1.20;99.90;;;;;;7375644;19;20149;-68
2023/01/18 04:47:55;;;;;;;0.10;0.10;;;-1.20;99.90;;;;;;7374431;19;20148;-67
2023/01/18 04:50:24;;;;;;;0.20;0.20;;;-1.10;99.90;;;;;;7374159;19;20144;-68
2023/01/18 04:52:52;;;;;;;0.13;0.13;;;-1.10;99.90;;;;;;7375499;19;20147;-68
2023/01/18 04:55:23;;;;;;;0.10;0.10;;;-1.10;99.90;;;;;;7377042;19;20144;-68
2023/01/18 04:57:58;;;;;;;0.10;0.10;;;-1.10;99.90;;;;;;7373005;19;20220;-68
2023/01/18 05:00:26;;;;;;;0.20;0.20;;;-1.10;99.90;;;;;;7376241;19;20149;-67
2023/01/18 05:02:55;;;;;;;0.20;0.20;;;-1.20;99.90;;;;;;7374223;19;20158;-68
2023/01/18 05:05:24;;;;;;;0.20;0.20;;;-1.10;99.90;;;;;;7375370;19;20706;-68
2023/01/18 05:07:52;;;;;;;0.10;0.10;;;-1.20;99.90;;;;;;7374007;19;20161;-68
2023/01/18 05:10:24;;;;;;;0.20;0.20;;;-1.10;99.90;;;;;;7372295;19;20145;-68
2023/01/18 05:12:52;;;;;;;0.20;0.20;;;-1.10;99.90;;;;;;7371318;19;20163;-68
2023/01/18 05:15:21;;;;;;;0.10;0.10;;;-1.20;99.90;;;;;;7369763;19;20152;-69
2023/01/18 05:17:50;;;;;;;0.20;0.20;;;-1.20;99.90;;;;;;7371646;19;20185;-67
2023/01/18 05:20:18;;;;;;;0.10;0.10;;;-1.20;99.90;;;;;;7372233;19;20140;-68
2023/01/18 05:22:47;;;;;;;0.15;0.15;;;-1.30;99.90;;;;;;7372992;19;20144;-68
2023/01/18 05:25:16;;;;;;;0.20;0.20;;;-1.30;99.90;;;;;;7371564;19;20145;-68
2023/01/18 05:27:47;;;;;;;0.20;0.20;;;-1.30;99.90;;;;;;7373440;19;20160;-68
2023/01/18 05:30:17;;;;;;;0.10;0.10;;;-1.30;99.90;;;;;;7374436;19;20170;-69
2023/01/18 05:32:45;;;;;;;0.20;0.20;;;-1.30;99.90;;;;;;7372277;19;20163;-68
2023/01/18 05:35:14;;;;;;;0.10;0.10;;;-1.30;99.90;;;;;;7379108;19;20141;-68
2023/01/18 05:37:43;;;;;;;0.10;0.10;;;-1.30;99.90;;;;;;7378669;19;20161;-68
2023/01/18 05:40:13;;;;;;;0.20;0.20;;;-1.20;99.90;;;;;;7379280;19;20251;-68
2023/01/18 05:42:42;;;;;;;0.20;0.20;;;-1.20;99.90;;;;;;7380927;19;20136;-68
2023/01/18 05:45:14;;;;;;;0.10;0.10;;;-1.20;99.90;;;;;;7378850;19;20738;-68
2023/01/18 05:47:42;;;;;;;0.10;0.10;;;-1.10;99.90;;;;;;7379222;19;20215;-70
2023/01/18 05:50:12;;;;;;;0.20;0.20;;;-1.10;99.90;;;;;;7380884;19;20152;-67
2023/01/18 05:52:40;;;;;;;0.20;0.20;;;-1.10;99.90;;;;;;7381051;19;20166;-67
2023/01/18 05:55:10;;;;;;;0.10;0.10;;;-1.00;99.90;;;;;;7380485;19;20180;-67
2023/01/18 05:57:38;;;;;;;0.20;0.20;;;-1.00;99.90;;;;;;7378310;19;20172;-67
2023/01/18 06:00:09;;;;;;;0.20;0.20;;;-1.00;99.90;;;;;;7379283;19;20156;-68
2023/01/18 06:02:42;;;;;;;0.20;0.20;;;-1.00;99.90;;;;;;7380832;19;20133;-67
2023/01/18 06:05:11;;;;;;;0.20;0.20;;;-0.90;99.90;;;;;;7378233;19;20185;-67
2023/01/18 06:07:41;;;;;;;0.17;0.17;;;-0.90;99.90;;;;;;7378630;19;20181;-68
2023/01/18 06:10:11;;;;;;;0.20;0.20;;;-0.90;99.90;;;;;;7380294;19;20136;-68
2023/01/18 06:12:40;;;;;;;0.10;0.10;;;-0.90;99.90;;;;;;7381268;19;20154;-68
2023/01/18 06:15:10;;;;;;;0.20;0.20;;;-0.90;99.90;;;;;;7379044;19;20152;-67
2023/01/18 06:17:41;;;;;;;0.20;0.20;;;-0.80;99.90;;;;;;7378553;19;20216;-67
2023/01/18 06:20:14;;;;;;;0.20;0.20;;;-0.80;99.90;;;;;;7379825;19;20137;-66
2023/01/18 06:22:44;;;;;;;0.20;0.20;;;-0.80;99.90;;;;;;7377662;19;20145;-66
2023/01/18 06:25:13;;;;;;;0.15;0.15;;;-0.80;99.90;;;;;;7379223;19;20137;-68
2023/01/18 06:27:41;;;;;;;0.10;0.10;;;-0.80;99.90;;;;;;7378552;19;20630;-68
2023/01/18 06:30:12;;;;;;;0.17;0.17;;;-0.80;99.90;;;;;;7379555;19;20133;-66
2023/01/18 06:32:43;;;;;;;0.20;0.20;;;-0.80;99.90;;;;;;7378466;19;20133;-67
2023/01/18 06:35:12;;;;;;;0.20;0.20;;;-0.80;99.90;;;;;;7376561;19;20133;-67
2023/01/18 06:37:41;;;;;;;0.20;0.20;;;-0.80;99.90;;;;;;7373331;19;20201;-67
2023/01/18 06:40:11;;;;;;;0.10;0.10;;;-0.80;99.90;;;;;;7377739;19;20152;-67
2023/01/18 06:42:40;;;;;;;0.10;0.10;;;-0.80;99.90;;;;;;7378485;19;20170;-67
2023/01/18 06:45:10;;;;;;;0.10;0.10;;;-0.80;99.90;;;;;;7378098;19;20143;-67
2023/01/18 06:47:39;;;;;;;0.17;0.17;;;-0.80;99.90;;;;;;7376356;19;20211;-67
2023/01/18 06:50:12;;;;;;;0.20;0.20;;;-0.80;99.90;;;;;;7378715;19;20184;-67
2023/01/18 06:52:41;;;;;;;0.20;0.20;;;-0.80;99.90;;;;;;7379296;19;20145;-67
2023/01/18 06:55:10;;;;;;;0.10;0.10;;;-0.80;99.90;;;;;;7379280;19;20140;-66
2023/01/18 06:57:38;;;;;;;0.10;0.10;;;-0.80;99.90;;;;;;7378078;19;20161;-67
2023/01/18 07:00:10;;;;;;;0.13;0.13;;;-0.80;99.90;;;;;;7377164;19;20156;-66
2023/01/18 07:02:39;;;;;;;0.10;0.10;;;-0.80;99.90;;;;;;7378798;19;20166;-67
2023/01/18 07:05:11;;;;;;;0.10;0.10;;;-0.80;99.90;;;;;;7378971;19;20137;-68
2023/01/18 07:07:40;;;;;;;0.20;0.20;;;-0.80;99.90;;;;;;7379116;19;20148;-66
2023/01/18 07:10:10;;;;;;;0.10;0.10;;;-0.70;99.90;;;;;;7379019;19;20136;-68
2023/01/18 07:12:38;;;;;;;0.10;0.10;;;-0.80;99.90;;;;;;7377754;19;20161;-66
2023/01/18 07:15:08;;;;;;;0.10;0.10;;;-0.80;99.90;;;;;;7375362;19;20191;-67
2023/01/18 07:17:37;;;;;;;0.10;0.10;;;-0.80;99.90;;;;;;7377626;19;20164;-67
2023/01/18 07:20:07;;;;;;;0.20;0.20;;;-0.80;99.90;;;;;;7376019;19;20241;-68
2023/01/18 07:22:38;;;;;;;0.10;0.10;;;-0.80;99.90;;;;;;7379134;19;20139;-68
2023/01/18 07:25:09;;;;;;;0.20;0.20;;;-0.80;99.90;;;;;;7376393;19;20156;-68
2023/01/18 07:27:38;;;;;;;0.20;0.20;;;-0.80;99.90;;;;;;7377438;19;20152;-68
2023/01/18 07:30:08;;;;;;;0.10;0.10;;;-0.80;99.90;;;;;;7375038;19;20225;-66
2023/01/18 07:32:36;;;;;;;0.10;0.10;;;-0.80;99.90;;;;;;7378164;19;20223;-67
2023/01/18 07:35:06;;;;;;;0.20;0.20;;;-0.80;99.90;;;;;;7374631;19;20157;-67
2023/01/18 07:37:38;;;;;;;0.10;0.10;;;-0.70;99.90;;;;;;7374914;19;20190;-66
2023/01/18 07:40:10;;;;;;;0.10;0.10;;;-0.70;99.90;;;;;;7375072;19;20148;-67
2023/01/18 07:42:38;;;;;;;0.10;0.10;;;-0.70;99.90;;;;;;7377387;19;20133;-68
2023/01/18 07:45:09;;;;;;;0.20;0.20;;;-0.70;99.90;;;;;;7376669;19;20148;-66
2023/01/18 07:47:38;;;;;;;0.20;0.20;;;-0.80;99.90;;;;;;7377564;19;20173;-69
2023/01/18 07:50:08;;;;;;;0.20;0.20;;;-0.80;99.90;;;;;;7376638;19;20133;-69
2023/01/18 07:52:39;;;;;;;0.20;0.20;;;-0.80;99.90;;;;;;7375599;19;20152;-68
2023/01/18 07:55:08;;;;;;;0.20;0.20;;;-0.80;99.90;;;;;;7375644;19;20190;-68
2023/01/18 07:57:37;;;;;;;0.10;0.10;;;-0.80;99.90;;;;;;7371404;19;20260;-68
2023/01/18 08:00:09;;;;;;;0.10;0.10;;;-0.70;99.90;;;;;;7377059;19;20157;-67
2023/01/18 08:02:43;;;;;;;0.10;0.10;;;-0.70;99.90;;;;;;7373259;19;20152;-67
2023/01/18 08:05:12;;;;;;;0.10;0.10;;;-0.70;99.90;;;;;;7375062;19;20187;-68
2023/01/18 08:07:44;;;;;;;0.10;0.10;;;-0.60;99.90;;;;;;7373820;19;20219;-66
2023/01/18 08:10:13;;;;;;;0.20;0.20;;;-0.60;99.90;;;;;;7376747;19;20153;-67
2023/01/18 08:12:42;;;;;;;0.13;0.13;;;-0.60;99.90;;;;;;7376920;19;20239;-67
2023/01/18 08:15:12;;;;;;;0.20;0.20;;;-0.50;99.90;;;;;;7373837;19;20314;-66
2023/01/18 08:17:42;;;;;;;0.15;0.15;;;-0.50;99.90;;;;;;7374465;19;20237;-66
2023/01/18 08:20:13;;;;;;;0.20;0.20;;;-0.50;99.90;;;;;;7375954;19;20141;-66
2023/01/18 08:22:44;;;;;;;0.10;0.10;;;-0.40;99.90;;;;;;7377536;19;20170;-68
2023/01/18 08:25:13;;;;;;;0.20;0.20;;;-0.50;99.90;;;;;;7373459;19;20148;-68
2023/01/18 08:27:42;;;;;;;0.10;0.10;;;-0.50;99.90;;;;;;7377104;19;20149;-68
2023/01/18 08:30:12;;;;;;;0.10;0.10;;;-0.40;99.90;;;;;;7373377;19;20182;-67
2023/01/18 08:32:41;;;;;;;0.20;0.20;;;-0.30;99.90;;;;;;7374715;19;20172;-67
2023/01/18 08:35:10;;;;;;;0.10;0.10;;;-0.30;99.90;;;;;;7375991;19;20145;-67
2023/01/18 08:37:40;;;;;;;0.20;0.20;;;-0.30;99.90;;;;;;7374718;19;20173;-68
2023/01/18 08:40:13;;;;;;;0.10;0.10;;;-0.20;99.90;;;;;;7373856;19;20160;-67
2023/01/18 08:42:42;;;;;;;0.20;0.20;;;-0.20;99.90;;;;;;7375499;19;20141;-67
2023/01/18 08:45:11;;;;;;;0.20;0.20;;;-0.20;99.90;;;;;;7375651;19;20138;-66
2023/01/18 08:47:40;;;;;;;0.20;0.20;;;-0.20;99.90;;;;;;7372736;19;20176;-68
2023/01/18 08:50:10;;;;;;;0.10;0.10;;;-0.10;99.90;;;;;;7374980;19;20212;-68
2023/01/18 08:52:39;;;;;;;0.20;0.20;;;-0.10;99.90;;;;;;7374066;19;20153;-68
2023/01/18 08:55:11;;;;;;;0.10;0.10;;;-0.10;99.90;;;;;;7373331;19;20239;-68
2023/01/18 08:57:40;;;;;;;0.20;0.20;;;-0.10;99.90;;;;;;7373019;19;20248;-66
2023/01/18 09:00:10;;;;;;;0.15;0.15;;;-0.10;99.90;;;;;;7373207;19;20184;-68
2023/01/18 09:02:39;;;;;;;0.20;0.20;;;0.00;99.90;;;;;;7373760;19;20155;-66
2023/01/18 09:05:08;;;;;;;0.10;0.10;;;0.00;99.90;;;;;;7374676;19;20140;-66
2023/01/18 09:07:37;;;;;;;0.10;0.10;;;0.10;99.90;;;;;;7372834;19;20176;-67
2023/01/18 09:10:07;;;;;;;0.17;0.17;;;0.10;99.90;;;;;;7383530;19;20136;-67
2023/01/18 09:12:39;;;;;;;0.20;0.20;;;0.20;99.90;;;;;;7384694;19;20135;-66
2023/01/18 09:15:09;;;;;;;0.20;0.20;;;0.20;99.90;;;;;;7383372;19;20149;-70
2023/01/18 09:17:38;;;;;;;0.10;0.10;;;0.20;99.90;;;;;;7379847;19;20206;-69
2023/01/18 09:20:10;;;;;;;0.20;0.20;;;0.30;99.90;;;;;;7382258;19;20603;-70
2023/01/18 09:22:41;;;;;;;0.10;0.10;;;0.30;99.90;;;;;;7380606;19;20152;-71
2023/01/18 09:25:11;;;;;;;0.20;0.20;;;0.40;99.90;;;;;;7382215;19;20166;-71
2023/01/18 09:27:42;;;;;;;0.20;0.20;;;0.50;99.90;;;;;;7380428;19;20236;-70
2023/01/18 09:30:14;;;;;;;0.20;0.20;;;0.60;99.90;;;;;;7381394;19;20174;-68
2023/01/18 09:32:43;;;;;;;0.20;0.20;;;0.60;99.90;;;;;;7380990;19;20235;-70
2023/01/18 09:35:16;;;;;;;0.10;0.10;;;0.70;99.90;;;;;;7381933;19;20131;-71
2023/01/18 09:37:45;;;;;;;0.20;0.20;;;0.80;99.90;;;;;;7380460;19;20722;-69
2023/01/18 09:40:18;;;;;;;0.20;0.20;;;0.90;99.90;;;;;;7379681;19;20178;-69
2023/01/18 09:42:52;;;;;;;0.10;0.10;;;0.90;99.90;;;;;;7381744;19;20148;-72
2023/01/18 09:45:29;;;;;;;0.10;0.10;;;1.00;99.90;;;;;;7380894;19;20611;-71
2023/01/18 09:48:03;;;;;;;0.10;0.10;;;1.00;99.90;;;;;;7379594;19;20180;-71
2023/01/18 09:50:35;;;;;;;0.10;0.10;;;1.20;99.90;;;;;;7379442;19;20148;-71
2023/01/18 09:53:17;;;;;;;0.20;0.20;;;1.10;99.90;;;;;;7381722;19;20146;-71
2023/01/18 09:55:52;;;;;;;0.20;0.20;;;1.20;99.90;;;;;;7380457;19;20160;-71
2023/01/18 09:58:43;;;;;;;0.10;0.10;;;1.20;99.90;;;;;;7380066;19;20149;-71
2023/01/18 10:01:16;;;;;;;0.20;0.20;;;1.20;99.90;;;;;;7379276;19;20232;-71
2023/01/18 10:03:50;;;;;;;0.10;0.10;;;1.30;99.90;;;;;;7381281;19;20636;-72
2023/01/18 10:06:24;;;;;;;0.10;0.10;;;1.30;99.90;;;;;;7381310;19;20132;-71
2023/01/18 10:09:03;;;;;;;0.20;0.20;;;1.40;99.90;;;;;;7376625;19;20180;-72
2023/01/18 10:11:42;;;;;;;0.17;0.17;;;1.40;99.90;;;;;;7379028;19;20159;-71
2023/01/18 10:14:20;;;;;;;0.13;0.13;;;1.40;99.90;;;;;;7378429;19;20653;-71
2023/01/18 10:16:55;;;;;;;0.10;0.10;;;1.40;99.90;;;;;;7381445;19;20176;-70
2023/01/18 10:19:28;;;;;;;0.10;0.10;;;1.40;99.90;;;;;;7377808;19;20618;-70
2023/01/18 10:22:03;;;;;;;0.10;0.10;;;1.40;99.90;;;;;;7379014;19;20141;-72
2023/01/18 10:24:46;;;;;;;0.20;0.20;;;1.40;99.90;;;;;;7376881;19;20144;-71
2023/01/18 10:27:36;;;;;;;0.20;0.20;;;1.40;99.90;;;;;;7380332;19;20623;-69
2023/01/18 10:30:26;;;;;;;0.10;0.10;;;1.50;99.90;;;;;;7377611;19;20753;-71
2023/01/18 10:32:58;;;;;;;0.10;0.10;;;1.50;99.90;;;;;;7380185;19;20156;-69
2023/01/18 10:35:32;;;;;;;0.10;0.10;;;1.60;99.90;;;;;;7376294;19;20614;-71
2023/01/18 10:38:04;;;;;;;0.10;0.10;;;1.70;99.90;;;;;;7376694;19;20718;-71
2023/01/18 10:40:34;;;;;;;0.20;0.20;;;1.70;99.90;;;;;;7380098;19;20748;-69
2023/01/18 10:43:03;;;;;;;0.10;0.10;;;1.80;99.90;;;;;;7376756;19;20688;-70
2023/01/18 10:45:36;;;;;;;0.20;0.20;;;1.80;99.90;;;;;;7380071;19;20603;-69
2023/01/18 10:48:30;;;;;;;0.10;0.10;;;1.90;99.90;;;;;;7378044;19;20746;-70
2023/01/18 10:51:01;;;;;;;0.10;0.10;;;1.90;99.90;;;;;;7378315;19;20645;-70
2023/01/18 10:53:33;;;;;;;0.10;0.10;;;2.00;99.90;;;;;;7378877;19;20199;-70
2023/01/18 10:56:04;;;;;;;0.20;0.20;;;2.10;99.90;;;;;;7380032;19;20599;-69
2023/01/18 10:58:38;;;;;;;0.10;0.10;;;2.10;99.90;;;;;;7377313;19;20626;-70
2023/01/18 11:01:15;;;;;;;0.10;0.10;;;2.20;99.90;;;;;;7377963;19;20646;-69
2023/01/18 11:03:48;;;;;;;0.10;0.10;;;2.20;99.90;;;;;;7377054;19;20686;-70
2023/01/18 11:06:19;;;;;;;0.10;0.10;;;2.20;99.90;;;;;;7379065;19;20697;-70
2023/01/18 11:08:49;;;;;;;0.10;0.10;;;2.20;99.90;;;;;;7376747;19;20631;-69
2023/01/18 11:12:32;;;;;;;0.10;0.10;;;2.20;99.90;;;;;;7376532;19;20678;-70
2023/01/18 11:14:26;;;;;;;0.20;0.20;;;2.20;99.90;;;;;;7375555;19;20614;-69
2023/01/18 11:17:10;;;;;;;0.10;0.10;;;2.10;99.90;;;;;;7378612;19;20709;-71
2023/01/18 11:19:40;;;;;;;0.20;0.20;;;2.10;99.90;;;;;;7376380;19;20684;-70
2023/01/18 11:22:14;;;;;;;0.10;0.10;;;2.20;99.90;;;;;;7377263;19;20643;-71
2023/01/18 11:24:44;;;;;;;0.20;0.20;;;2.10;99.90;;;;;;7377222;19;21233;-72
2023/01/18 11:27:16;;;;;;;0.10;0.10;;;2.20;99.90;;;;;;7376150;19;20643;-71
2023/01/18 11:29:48;;;;;;;0.10;0.10;;;2.20;99.90;;;;;;7378665;19;20639;-71
2023/01/18 11:32:25;;;;;;;0.10;0.10;;;2.30;99.90;;;;;;7377903;19;20642;-68
2023/01/18 11:34:58;;;;;;;0.10;0.10;;;2.30;99.90;;;;;;7377599;19;20729;-68
2023/01/18 11:37:33;;;;;;;0.10;0.10;;;2.40;99.90;;;;;;7377030;19;20682;-68
2023/01/18 11:40:19;;;;;;;0.10;0.10;;;2.40;99.90;;;;;;7375308;19;20637;-68
2023/01/18 11:42:48;;;;;;;0.20;0.20;;;2.40;99.90;;;;;;7376315;19;20638;-67
2023/01/18 11:45:25;;;;;;;0.10;0.10;;;2.40;99.90;;;;;;7376493;19;20646;-68
2023/01/18 11:48:04;;;;;;;0.10;0.10;;;2.40;99.90;;;;;;7375319;19;20730;-69
2023/01/18 11:50:41;;;;;;;0.10;0.10;;;2.40;99.90;;;;;;7377759;19;20591;-68
2023/01/18 11:53:25;;;;;;;0.10;0.10;;;2.50;99.90;;;;;;7378045;19;20597;-67
2023/01/18 11:56:04;;;;;;;0.10;0.10;;;2.50;99.90;;;;;;7377024;19;20655;-67
2023/01/18 11:58:34;;;;;;;0.10;0.10;;;2.40;99.90;;;;;;7377116;19;20703;-67
2023/01/18 12:01:27;;;;;;;0.10;0.10;;;2.40;99.90;;;;;;7376333;19;20626;-67
2023/01/18 12:04:03;;;;;;;0.10;0.10;;;2.40;99.90;;;;;;7376468;19;20599;-67
2023/01/18 12:06:46;;;;;;;0.10;0.10;;;2.50;99.90;;;;;;7375671;19;20610;-67
2023/01/18 12:09:32;;;;;;;0.10;0.10;;;2.50;99.90;;;;;;7378416;19;20599;-67
2023/01/18 12:12:24;;;;;;;0.10;0.10;;;2.50;99.90;;;;;;7377516;19;20611;-66
2023/01/18 12:15:13;;;;;;;0.10;0.10;;;2.60;99.90;;;;;;7373700;19;20730;-67
2023/01/18 12:17:56;;;;;;;0.10;0.10;;;2.60;99.90;;;;;;7377456;19;21143;-69
2023/01/18 12:20:34;;;;;;;0.10;0.10;;;2.70;99.90;;;;;;7374990;19;20745;-68
2023/01/18 12:23:26;;;;;;;0.10;0.10;;;2.80;99.90;;;;;;7376538;19;20619;-67
2023/01/18 12:26:05;;;;;;;0.10;0.10;;;2.80;99.90;;;;;;7376546;19;20638;-68
2023/01/18 12:28:43;;;;;;;0.10;0.10;;;2.80;99.90;;;;;;7374929;19;20717;-66
2023/01/18 12:31:21;;;;;;;0.10;0.10;;;2.80;99.90;;;;;;7375089;19;20737;-66
2023/01/18 12:33:59;;;;;;;0.13;0.13;;;2.80;99.90;;;;;;7374452;19;20727;-67
2023/01/18 12:36:51;;;;;;;0.10;0.10;;;2.80;99.90;;;;;;7375319;19;20599;-67
2023/01/18 12:39:34;;;;;;;0.10;0.10;;;2.70;99.90;;;;;;7374695;19;20611;-68
2023/01/18 12:42:06;;;;;;;0.10;0.10;;;2.70;99.90;;;;;;7376485;19;20709;-68
2023/01/18 12:45:08;;;;;;;0.10;0.10;;;2.70;99.90;;;;;;7371627;19;20745;-68
2023/01/18 12:47:38;;;;;;;0.10;0.10;;;2.70;99.90;;;;;;7374029;19;20626;-68
2023/01/18 12:50:18;;;;;;;0.10;0.10;;;2.60;99.90;;;;;;7374371;19;20688;-66
2023/01/18 12:52:53;;;;;;;0.10;0.10;;;2.60;99.90;;;;;;7373811;19;20658;-67
2023/01/18 12:55:26;;;;;;;0.10;0.10;;;2.60;99.90;;;;;;7375036;19;20610;-67
2023/01/18 12:57:59;;;;;;;0.10;0.10;;;2.50;99.90;;;;;;7374659;19;20603;-67
2023/01/18 13:00:34;;;;;;;0.10;0.10;;;2.40;99.90;;;;;;7374309;19;20631;-68
2023/01/18 13:03:10;;;;;;;0.10;0.10;;;2.40;99.90;;;;;;7373763;19;20622;-67
2023/01/18 13:05:51;;;;;;;0.10;0.10;;;2.40;99.90;;;;;;7374632;19;20721;-67
2023/01/18 13:08:28;;;;;;;0.10;0.10;;;2.40;99.90;;;;;;7372270;19;20708;-68
2023/01/18 13:11:04;;;;;;;0.10;0.10;;;2.40;99.90;;;;;;7372901;19;20626;-67
2023/01/18 13:13:33;;;;;;;0.13;0.13;;;2.40;99.90;;;;;;7373742;19;20737;-66
2023/01/18 13:16:13;;;;;;;0.10;0.10;;;2.40;99.90;;;;;;7375523;19;20655;-67
2023/01/18 13:18:49;;;;;;;0.10;0.10;;;2.40;99.90;;;;;;7373682;19;20737;-67
2023/01/18 13:21:24;;;;;;;0.10;0.10;;;2.50;99.90;;;;;;7373685;19;20631;-68
2023/01/18 13:24:06;;;;;;;0.10;0.10;;;2.50;99.90;;;;;;7374827;19;20667;-68
2023/01/18 13:26:36;;;;;;;0.10;0.10;;;2.50;99.90;;;;;;7372877;19;20615;-68
2023/01/18 13:29:15;;;;;;;0.10;0.10;;;2.50;99.90;;;;;;7373556;19;20611;-67
2023/01/18 13:31:44;;;;;;;0.10;0.10;;;2.50;99.90;;;;;;7373201;19;20595;-68
2023/01/18 13:34:30;;;;;;;0.10;0.10;;;2.50;99.90;;;;;;7374238;19;20603;-68
2023/01/18 13:37:00;;;;;;;0.10;0.10;;;2.50;99.90;;;;;;7372841;19;20683;-68
2023/01/18 13:39:33;;;;;;;0.10;0.10;;;2.50;99.90;;;;;;7372710;19;20615;-69
2023/01/18 13:42:28;;;;;;;0.10;0.10;;;2.50;99.90;;;;;;7373695;19;20705;-68
2023/01/18 13:45:18;;;;;;;0.10;0.10;;;2.50;99.90;;;;;;7367875;19;20615;-70
2023/01/18 13:47:53;;;;;;;0.10;0.10;;;2.50;99.90;;;;;;7373065;19;20615;-70
2023/01/18 13:50:44;;;;;;;0.10;0.10;;;2.40;99.90;;;;;;7373387;19;20629;-68
2023/01/18 13:53:28;;;;;;;0.10;0.10;;;2.40;99.90;;;;;;7372489;19;20691;-68